createdAt,value
2018-05-09T00:00:05.772Z,74.84
2018-05-09T00:01:05.923Z,75.22
2018-05-09T00:02:06.165Z,75.02
2018-05-09T00:03:06.285Z,75.02
2018-05-09T00:04:06.465Z,75.41
2018-05-09T00:05:06.661Z,75.41
2018-05-09T00:06:06.832Z,75.02
2018-05-09T00:08:07.187Z,75.22
2018-05-09T00:09:07.448Z,75.51
2018-05-09T00:10:07.556Z,75.31
2018-05-09T00:11:07.735Z,75.51
2018-05-09T00:12:07.921Z,75.56
2018-05-09T00:13:08.098Z,75.76
2018-05-09T00:14:08.292Z,75.85
2018-05-09T00:15:08.460Z,76.52
2018-05-09T00:16:08.641Z,76.81
2018-05-09T00:17:08.820Z,76.33
2018-05-09T00:18:09.000Z,77.09
2018-05-09T00:19:09.185Z,76.71
2018-05-09T00:20:09.374Z,77.38
2018-05-09T00:21:09.549Z,77.82
2018-05-09T00:22:09.731Z,77.72
2018-05-09T00:23:09.910Z,78.49
2018-05-09T00:24:10.088Z,78.11
2018-05-09T00:25:10.278Z,77.92
2018-05-09T00:26:10.452Z,78.11
2018-05-09T00:27:10.635Z,78.49
2018-05-09T00:28:10.819Z,78.49
2018-05-09T00:29:10.995Z,78.20
2018-05-09T00:30:11.178Z,78.49
2018-05-09T00:31:11.369Z,78.78
2018-05-09T00:32:11.566Z,78.87
2018-05-09T00:33:11.723Z,78.78
2018-05-09T00:34:11.952Z,78.58
2018-05-09T00:35:12.080Z,79.12
2018-05-09T00:36:12.260Z,79.12
2018-05-09T00:37:12.444Z,79.54
2018-05-09T00:38:12.621Z,79.93
2018-05-09T00:39:12.811Z,79.54
2018-05-09T00:40:12.983Z,79.25
2018-05-09T00:41:13.179Z,79.54
2018-05-09T00:42:13.359Z,80.02
2018-05-09T00:43:13.534Z,79.79
2018-05-09T00:44:13.715Z,79.79
2018-05-09T00:45:13.894Z,80.02
2018-05-09T00:46:14.076Z,79.73
2018-05-09T00:47:14.265Z,79.73
2018-05-09T00:48:14.736Z,79.98
2018-05-09T00:49:14.619Z,80.21
2018-05-09T00:50:14.896Z,80.02
2018-05-09T00:51:14.988Z,79.88
2018-05-09T00:52:15.167Z,79.98
2018-05-09T00:53:15.346Z,80.65
2018-05-09T00:54:15.533Z,80.46
2018-05-09T00:55:15.705Z,80.74
2018-05-09T00:56:15.886Z,80.46
2018-05-09T00:57:16.073Z,80.65
2018-05-09T00:58:16.249Z,80.74
2018-05-09T00:59:16.432Z,80.93
2018-05-09T01:00:16.607Z,80.93
2018-05-09T01:01:16.794Z,81.22
2018-05-09T01:02:16.965Z,81.32
2018-05-09T01:03:17.144Z,80.84
2018-05-09T01:04:17.326Z,80.84
2018-05-09T01:05:17.511Z,80.65
2018-05-09T01:07:17.864Z,80.46
2018-05-09T01:08:18.048Z,80.17
2018-05-09T01:09:18.226Z,80.17
2018-05-09T01:10:18.406Z,80.07
2018-05-09T01:11:18.582Z,80.27
2018-05-09T01:12:18.771Z,79.41
2018-05-09T01:13:18.945Z,80.07
2018-05-09T01:14:19.128Z,79.41
2018-05-09T01:15:19.304Z,80.07
2018-05-09T01:16:19.488Z,80.07
2018-05-09T01:17:19.662Z,80.27
2018-05-09T01:18:19.844Z,80.17
2018-05-09T01:19:20.029Z,81.03
2018-05-09T01:20:20.207Z,80.93
2018-05-09T01:21:20.387Z,81.47
2018-05-09T01:22:20.565Z,81.18
2018-05-09T01:23:20.750Z,81.18
2018-05-09T01:24:20.935Z,81.27
2018-05-09T01:26:21.283Z,81.66
2018-05-09T01:27:21.466Z,82.23
2018-05-09T01:28:21.639Z,81.76
2018-05-09T01:29:21.824Z,82.14
2018-05-09T01:30:22.015Z,82.76
2018-05-09T01:31:22.184Z,83.62
2018-05-09T01:32:22.369Z,83.24
2018-05-09T01:33:22.554Z,83.43
2018-05-09T01:34:22.725Z,83.67
2018-05-09T01:35:22.917Z,82.81
2018-05-09T01:36:23.076Z,82.71
2018-05-09T01:37:23.256Z,82.71
2018-05-09T01:38:23.435Z,81.85
2018-05-09T01:39:23.621Z,82.23
2018-05-09T01:40:23.802Z,81.85
2018-05-09T01:41:23.981Z,81.47
2018-05-09T01:42:24.164Z,80.99
2018-05-09T01:43:24.343Z,81.18
2018-05-09T01:44:24.518Z,81.09
2018-05-09T01:45:24.696Z,81.27
2018-05-09T01:46:24.882Z,81.09
2018-05-09T01:47:25.056Z,81.66
2018-05-09T01:48:25.237Z,82.04
2018-05-09T01:49:25.419Z,82.23
2018-05-09T01:50:25.616Z,82.52
2018-05-09T01:51:25.788Z,82.52
2018-05-09T01:52:25.973Z,83.00
2018-05-09T01:53:26.148Z,82.86
2018-05-09T01:54:26.326Z,82.67
2018-05-09T01:55:26.508Z,83.05
2018-05-09T01:56:26.691Z,83.05
2018-05-09T01:57:26.874Z,82.71
2018-05-09T01:58:27.045Z,82.57
2018-05-09T01:59:27.518Z,82.86
2018-05-09T02:00:27.402Z,83.53
2018-05-09T02:01:27.579Z,83.53
2018-05-09T02:02:27.762Z,83.53
2018-05-09T02:03:27.951Z,83.53
2018-05-09T02:04:28.127Z,83.24
2018-05-09T02:05:28.310Z,84.20
2018-05-09T02:06:28.483Z,84.00
2018-05-09T02:07:28.668Z,84.00
2018-05-09T02:08:28.848Z,84.20
2018-05-09T02:10:29.204Z,83.43
2018-05-09T02:11:29.389Z,83.53
2018-05-09T02:12:29.570Z,83.72
2018-05-09T02:13:29.742Z,83.43
2018-05-09T02:14:29.996Z,83.62
2018-05-09T02:15:30.100Z,83.14
2018-05-09T02:16:30.282Z,82.86
2018-05-09T02:17:30.565Z,82.76
2018-05-09T02:18:30.642Z,82.76
2018-05-09T02:19:30.824Z,82.95
2018-05-09T02:20:31.004Z,82.57
2018-05-09T02:21:31.182Z,82.86
2018-05-09T02:22:31.368Z,82.57
2018-05-09T02:23:31.545Z,82.48
2018-05-09T02:24:31.729Z,82.48
2018-05-09T02:25:31.909Z,83.05
2018-05-09T02:26:32.101Z,82.95
2018-05-09T02:27:32.277Z,82.76
2018-05-09T02:28:32.458Z,83.05
2018-05-09T02:29:32.637Z,82.48
2018-05-09T02:30:32.823Z,83.34
2018-05-09T02:31:33.007Z,84.20
2018-05-09T02:32:33.184Z,83.91
2018-05-09T02:33:33.709Z,84.00
2018-05-09T02:34:33.518Z,84.10
2018-05-09T02:35:33.703Z,84.29
2018-05-09T02:36:33.878Z,84.06
2018-05-09T02:37:34.067Z,83.96
2018-05-09T02:38:34.244Z,83.87
2018-05-09T02:39:34.422Z,84.34
2018-05-09T02:40:34.602Z,84.34
2018-05-09T02:41:34.780Z,84.34
2018-05-09T02:42:34.961Z,84.92
2018-05-09T02:43:35.280Z,84.92
2018-05-09T02:44:35.320Z,85.01
2018-05-09T02:45:35.506Z,84.82
2018-05-09T02:46:35.673Z,85.01
2018-05-09T02:47:35.853Z,84.82
2018-05-09T02:48:36.037Z,84.72
2018-05-09T02:49:36.211Z,84.92
2018-05-09T02:50:36.389Z,84.72
2018-05-09T02:51:36.569Z,84.82
2018-05-09T02:52:36.751Z,84.34
2018-05-09T02:53:36.940Z,84.34
2018-05-09T02:54:37.105Z,84.53
2018-05-09T02:55:37.286Z,84.72
2018-05-09T02:56:37.467Z,84.82
2018-05-09T02:57:37.644Z,84.63
2018-05-09T02:58:37.825Z,85.21
2018-05-09T02:59:38.010Z,85.30
2018-05-09T03:00:38.188Z,85.39
2018-05-09T03:01:38.370Z,84.72
2018-05-09T03:02:38.547Z,84.92
2018-05-09T03:03:38.725Z,85.21
2018-05-09T03:04:38.915Z,85.30
2018-05-09T03:05:39.084Z,85.11
2018-05-09T03:06:39.266Z,85.01
2018-05-09T03:07:39.444Z,85.39
2018-05-09T03:08:39.629Z,85.11
2018-05-09T03:09:39.810Z,84.53
2018-05-09T03:10:39.984Z,84.53
2018-05-09T03:11:40.162Z,84.82
2018-05-09T03:12:40.343Z,84.34
2018-05-09T03:13:40.523Z,84.82
2018-05-09T03:14:40.703Z,84.72
2018-05-09T03:15:40.882Z,84.92
2018-05-09T03:16:41.062Z,84.82
2018-05-09T03:17:41.246Z,84.82
2018-05-09T03:18:41.429Z,84.92
2018-05-09T03:19:41.603Z,84.25
2018-05-09T03:20:41.775Z,84.25
2018-05-09T03:21:41.963Z,84.25
2018-05-09T03:22:42.141Z,84.63
2018-05-09T03:23:42.320Z,83.96
2018-05-09T03:24:42.501Z,84.06
2018-05-09T03:25:42.681Z,83.87
2018-05-09T03:26:42.861Z,84.34
2018-05-09T03:27:43.052Z,84.16
2018-05-09T03:28:43.224Z,84.16
2018-05-09T03:29:43.428Z,83.96
2018-05-09T03:30:43.582Z,83.96
2018-05-09T03:31:43.769Z,84.06
2018-05-09T03:32:43.939Z,84.82
2018-05-09T03:33:44.123Z,85.16
2018-05-09T03:34:44.301Z,85.45
2018-05-09T03:35:44.477Z,85.21
2018-05-09T03:36:44.657Z,85.64
2018-05-09T03:37:44.838Z,85.73
2018-05-09T03:38:45.017Z,85.64
2018-05-09T03:39:45.204Z,85.58
2018-05-09T03:40:45.379Z,85.49
2018-05-09T03:41:45.563Z,85.39
2018-05-09T03:42:45.737Z,85.21
2018-05-09T03:43:45.916Z,86.06
2018-05-09T03:44:46.094Z,85.30
2018-05-09T03:45:46.281Z,85.45
2018-05-09T03:46:46.456Z,85.93
2018-05-09T03:47:46.633Z,86.11
2018-05-09T03:48:46.811Z,86.11
2018-05-09T03:49:46.990Z,85.64
2018-05-09T03:50:47.169Z,85.54
2018-05-09T03:51:47.350Z,85.45
2018-05-09T03:52:47.528Z,85.83
2018-05-09T03:53:47.709Z,85.93
2018-05-09T03:54:47.894Z,85.93
2018-05-09T03:55:48.073Z,85.93
2018-05-09T03:56:48.256Z,85.93
2018-05-09T03:57:48.443Z,85.93
2018-05-09T03:58:48.628Z,85.93
2018-05-09T03:59:48.801Z,86.02
2018-05-09T04:00:48.971Z,86.21
2018-05-09T04:01:49.149Z,85.93
2018-05-09T04:02:49.328Z,86.21
2018-05-09T04:03:49.503Z,86.11
2018-05-09T04:04:49.686Z,86.30
2018-05-09T04:05:49.872Z,86.11
2018-05-09T04:06:50.047Z,86.30
2018-05-09T04:07:50.224Z,86.30
2018-05-09T04:08:50.403Z,86.11
2018-05-09T04:09:50.584Z,85.83
2018-05-09T04:10:50.775Z,85.64
2018-05-09T04:11:51.194Z,86.30
2018-05-09T04:12:51.137Z,85.93
2018-05-09T04:13:51.305Z,86.69
2018-05-09T04:14:51.489Z,86.78
2018-05-09T04:15:51.674Z,86.69
2018-05-09T04:16:51.843Z,86.69
2018-05-09T04:17:52.028Z,86.11
2018-05-09T04:18:52.207Z,85.83
2018-05-09T04:19:52.383Z,85.16
2018-05-09T04:20:52.574Z,84.34
2018-05-09T04:21:52.772Z,83.62
2018-05-09T04:22:52.920Z,82.09
2018-05-09T04:23:53.109Z,81.33
2018-05-09T04:24:53.273Z,79.36
2018-05-09T04:25:53.465Z,78.74
2018-05-09T04:26:53.638Z,77.53
2018-05-09T04:27:53.818Z,76.67
2018-05-09T04:28:53.999Z,75.56
2018-05-09T04:29:54.182Z,75.18
2018-05-09T04:30:54.362Z,73.75
2018-05-09T04:31:54.548Z,73.59
2018-05-09T04:32:54.722Z,72.34
2018-05-09T04:33:54.904Z,72.09
2018-05-09T04:34:55.087Z,71.04
2018-05-09T04:35:55.283Z,69.89
2018-05-09T04:36:55.449Z,69.60
2018-05-09T04:37:55.633Z,69.26
2018-05-09T04:38:55.816Z,68.59
2018-05-09T04:39:56.002Z,68.01
2018-05-09T04:40:56.182Z,67.54
2018-05-09T04:41:56.479Z,67.47
2018-05-09T04:42:56.550Z,66.71
2018-05-09T04:43:56.737Z,66.64
2018-05-09T04:44:56.918Z,66.26
2018-05-09T04:45:57.104Z,64.63
2018-05-09T04:46:57.293Z,64.09
2018-05-09T04:47:57.472Z,63.79
2018-05-09T04:48:57.654Z,63.32
2018-05-09T04:49:57.839Z,62.19
2018-05-09T04:50:58.026Z,61.72
2018-05-09T04:51:58.215Z,61.84
2018-05-09T04:52:58.405Z,61.05
2018-05-09T04:53:58.590Z,60.85
2018-05-09T04:54:58.784Z,61.08
2018-05-09T04:55:58.966Z,60.69
2018-05-09T04:56:59.149Z,60.40
2018-05-09T04:57:59.339Z,60.53
2018-05-09T04:58:59.594Z,60.60
2018-05-09T04:59:59.707Z,59.92
2018-05-09T05:00:59.891Z,60.78
2018-05-09T05:02:00.083Z,60.88
2018-05-09T05:03:00.273Z,60.50
2018-05-09T05:04:00.464Z,60.40
2018-05-09T05:05:00.644Z,59.86
2018-05-09T05:06:00.835Z,59.57
2018-05-09T05:07:01.059Z,59.28
2018-05-09T05:08:01.197Z,58.92
2018-05-09T05:09:01.390Z,58.64
2018-05-09T05:10:01.575Z,58.80
2018-05-09T05:11:01.756Z,58.80
2018-05-09T05:12:01.952Z,59.28
2018-05-09T05:13:02.141Z,58.64
2018-05-09T05:14:02.330Z,58.64
2018-05-09T05:15:02.517Z,58.06
2018-05-09T05:16:02.704Z,57.87
2018-05-09T05:17:02.900Z,57.68
2018-05-09T05:18:03.087Z,57.13
2018-05-09T05:19:03.267Z,57.00
2018-05-09T05:20:03.448Z,56.45
2018-05-09T05:21:03.647Z,56.38
2018-05-09T05:22:03.914Z,55.23
2018-05-09T05:23:04.032Z,54.75
2018-05-09T05:24:04.222Z,55.40
2018-05-09T05:25:04.407Z,55.43
2018-05-09T05:26:04.596Z,55.43
2018-05-09T05:27:04.845Z,54.94
2018-05-09T05:28:04.974Z,54.94
2018-05-09T05:29:05.162Z,54.13
2018-05-09T05:30:05.353Z,53.07
2018-05-09T05:31:05.545Z,53.62
2018-05-09T05:32:05.730Z,53.65
2018-05-09T05:33:05.921Z,53.33
2018-05-09T05:34:06.106Z,54.39
2018-05-09T05:35:06.296Z,54.39
2018-05-09T05:36:06.487Z,54.85
2018-05-09T05:37:06.673Z,54.22
2018-05-09T05:38:06.868Z,53.81
2018-05-09T05:39:07.064Z,54.20
2018-05-09T05:40:07.240Z,53.65
2018-05-09T05:41:07.433Z,53.17
2018-05-09T05:42:07.616Z,53.17
2018-05-09T05:43:07.810Z,53.17
2018-05-09T05:44:07.998Z,53.29
2018-05-09T05:45:08.305Z,52.25
2018-05-09T05:46:08.384Z,51.84
2018-05-09T05:47:08.576Z,52.23
2018-05-09T05:48:08.760Z,52.35
2018-05-09T05:49:08.954Z,51.58
2018-05-09T05:50:09.150Z,51.46
2018-05-09T05:51:09.337Z,52.33
2018-05-09T05:52:09.530Z,52.71
2018-05-09T05:53:09.714Z,52.81
2018-05-09T05:54:09.893Z,51.87
2018-05-09T05:55:10.089Z,50.74
2018-05-09T05:56:10.362Z,51.48
2018-05-09T05:57:10.456Z,52.06
2018-05-09T05:58:10.650Z,51.22
2018-05-09T05:59:11.088Z,51.03
2018-05-09T06:00:11.039Z,50.38
2018-05-09T06:01:11.231Z,50.26
2018-05-09T06:02:11.426Z,50.35
2018-05-09T06:03:11.648Z,49.22
2018-05-09T06:04:11.808Z,49.19
2018-05-09T06:05:11.997Z,53.69
2018-05-09T06:06:12.191Z,54.39
2018-05-09T06:07:12.379Z,54.78
2018-05-09T06:08:12.571Z,53.65
2018-05-09T06:09:12.761Z,52.81
2018-05-09T06:10:12.951Z,52.04
2018-05-09T06:11:13.140Z,52.23
2018-05-09T06:12:13.334Z,52.87
2018-05-09T06:13:13.522Z,52.71
2018-05-09T06:14:13.712Z,52.25
2018-05-09T06:15:13.936Z,51.20
2018-05-09T06:16:14.084Z,51.12
2018-05-09T06:17:14.371Z,49.99
2018-05-09T06:18:14.479Z,48.86
2018-05-09T06:19:14.656Z,48.30
2018-05-09T06:20:14.845Z,47.80
2018-05-09T06:21:15.037Z,47.53
2018-05-09T06:22:15.235Z,46.78
2018-05-09T06:23:15.452Z,46.39
2018-05-09T06:24:15.751Z,46.78
2018-05-09T06:25:15.812Z,46.61
2018-05-09T06:26:16.017Z,45.93
2018-05-09T06:27:16.195Z,45.57
2018-05-09T06:28:16.396Z,44.96
2018-05-09T06:29:16.593Z,46.47
2018-05-09T06:30:16.795Z,47.91
2018-05-09T06:31:17.226Z,46.95
2018-05-09T06:32:17.175Z,46.80
2018-05-09T06:33:17.369Z,46.68
2018-05-09T06:34:17.557Z,46.95
2018-05-09T06:35:17.746Z,49.22
2018-05-09T06:36:17.943Z,49.27
2018-05-09T06:37:18.134Z,48.47
2018-05-09T06:38:18.314Z,48.79
2018-05-09T06:39:18.497Z,48.03
2018-05-09T06:40:18.679Z,46.44
2018-05-09T06:41:18.876Z,45.51
2018-05-09T06:42:19.062Z,44.91
2018-05-09T06:43:19.249Z,45.93
2018-05-09T06:44:19.441Z,47.33
2018-05-09T06:45:19.634Z,47.91
2018-05-09T06:46:19.828Z,47.45
2018-05-09T06:47:20.012Z,46.97
2018-05-09T06:48:20.202Z,46.34
2018-05-09T06:49:20.401Z,45.01
2018-05-09T06:50:20.584Z,44.33
2018-05-09T06:51:20.781Z,44.53
2018-05-09T06:52:21.203Z,45.37
2018-05-09T06:53:21.154Z,45.57
2018-05-09T06:54:21.344Z,45.57
2018-05-09T06:55:21.536Z,45.49
2018-05-09T06:56:21.734Z,45.30
2018-05-09T06:57:21.928Z,44.26
2018-05-09T06:58:22.119Z,43.70
2018-05-09T06:59:22.310Z,42.36
2018-05-09T07:00:22.485Z,42.17
2018-05-09T07:01:22.669Z,41.68
2018-05-09T07:02:22.864Z,41.22
2018-05-09T07:03:23.056Z,40.75
2018-05-09T07:04:23.273Z,39.98
2018-05-09T07:05:23.418Z,39.41
2018-05-09T07:06:23.744Z,40.71
2018-05-09T07:07:23.792Z,42.05
2018-05-09T07:08:24.049Z,43.29
2018-05-09T07:09:24.201Z,44.40
2018-05-09T07:10:24.425Z,45.18
2018-05-09T07:11:24.604Z,45.81
2018-05-09T07:12:24.804Z,46.39
2018-05-09T07:13:24.992Z,46.75
2018-05-09T07:14:25.167Z,46.85
2018-05-09T07:15:25.368Z,47.89
2018-05-09T07:16:25.774Z,48.64
2018-05-09T07:17:25.722Z,49.96
2018-05-09T07:18:25.909Z,51.39
2018-05-09T07:19:26.100Z,53.19
2018-05-09T07:20:26.292Z,53.58
2018-05-09T07:21:26.472Z,53.67
2018-05-09T07:22:26.661Z,54.35
2018-05-09T07:23:26.941Z,54.35
2018-05-09T07:24:27.032Z,56.03
2018-05-09T07:25:27.218Z,56.12
2018-05-09T07:26:27.396Z,55.22
2018-05-09T07:27:27.668Z,55.19
2018-05-09T07:28:28.023Z,54.44
2018-05-09T07:29:27.989Z,54.18
2018-05-09T07:30:28.184Z,52.98
2018-05-09T07:31:28.641Z,50.62
2018-05-09T07:32:28.579Z,48.25
2018-05-09T07:33:28.776Z,47.09
2018-05-09T07:34:29.023Z,46.80
2018-05-09T07:35:29.149Z,46.25
2018-05-09T07:36:29.512Z,45.01
2018-05-09T07:37:29.506Z,44.81
2018-05-09T07:38:29.664Z,44.26
2018-05-09T07:39:29.841Z,44.06
2018-05-09T07:40:30.023Z,44.06
2018-05-09T07:41:30.203Z,43.50
2018-05-09T07:42:30.387Z,43.33
2018-05-09T07:43:30.586Z,42.85
2018-05-09T07:44:30.765Z,42.75
2018-05-09T07:45:30.953Z,42.65
2018-05-09T07:46:31.136Z,42.29
2018-05-09T07:47:31.399Z,41.14
2018-05-09T07:48:31.501Z,40.66
2018-05-09T07:49:31.671Z,41.24
2018-05-09T07:50:31.853Z,41.12
2018-05-09T07:51:32.477Z,41.02
2018-05-09T07:52:32.326Z,41.14
2018-05-09T07:53:32.460Z,41.20
2018-05-09T07:54:32.656Z,41.99
2018-05-09T07:55:32.907Z,40.92
2018-05-09T07:56:33.017Z,41.12
2018-05-09T07:57:33.611Z,42.09
2018-05-09T07:58:33.488Z,42.82
2018-05-09T07:59:33.629Z,43.23
2018-05-09T08:00:33.807Z,43.50
2018-05-09T08:01:34.018Z,44.89
2018-05-09T08:02:34.195Z,46.26
2018-05-09T08:03:35.405Z,45.22
2018-05-09T08:04:34.603Z,44.18
2018-05-09T08:05:34.766Z,45.28
2018-05-09T08:06:34.922Z,45.90
2018-05-09T08:07:35.103Z,45.32
2018-05-09T08:08:35.831Z,45.03
2018-05-09T08:09:35.499Z,44.67
2018-05-09T08:10:35.679Z,44.47
2018-05-09T08:11:35.859Z,43.62
2018-05-09T08:12:36.042Z,43.33
2018-05-09T08:13:36.212Z,42.50
2018-05-09T08:14:36.720Z,42.46
2018-05-09T08:15:36.680Z,42.75
2018-05-09T08:16:36.834Z,42.36
2018-05-09T08:17:37.023Z,42.46
2018-05-09T08:18:37.217Z,41.80
2018-05-09T08:20:37.555Z,41.22
2018-05-09T08:21:37.723Z,41.70
2018-05-09T08:22:37.915Z,41.68
2018-05-09T08:23:38.068Z,41.70
2018-05-09T08:24:38.262Z,41.14
2018-05-09T08:25:38.434Z,40.36
2018-05-09T08:26:38.816Z,40.29
2018-05-09T08:27:38.765Z,40.48
2018-05-09T08:28:38.940Z,40.39
2018-05-09T08:29:39.123Z,40.26
2018-05-09T08:30:39.292Z,40.58
2018-05-09T08:31:39.474Z,40.31
2018-05-09T08:32:39.670Z,38.87
2018-05-09T08:33:39.846Z,38.19
2018-05-09T08:34:40.048Z,37.96
2018-05-09T08:35:40.218Z,37.37
2018-05-09T08:36:40.489Z,37.78
2018-05-09T08:37:40.576Z,37.41
2018-05-09T08:38:40.771Z,37.90
2018-05-09T08:39:40.927Z,37.51
2018-05-09T08:40:41.132Z,37.28
2018-05-09T08:41:41.319Z,38.44
2018-05-09T08:42:41.520Z,40.46
2018-05-09T08:43:41.750Z,40.15
2018-05-09T08:44:41.836Z,39.39
2018-05-09T08:45:42.015Z,38.65
2018-05-09T08:46:42.242Z,38.79
2018-05-09T08:47:42.367Z,39.78
2018-05-09T08:48:42.586Z,38.93
2018-05-09T08:49:42.758Z,38.91
2018-05-09T08:50:42.953Z,40.08
2018-05-09T08:51:43.159Z,40.26
2018-05-09T08:52:43.326Z,40.00
2018-05-09T08:53:43.509Z,39.53
2018-05-09T08:54:43.687Z,39.45
2018-05-09T08:55:43.843Z,38.39
2018-05-09T08:56:44.033Z,38.21
2018-05-09T08:57:44.241Z,37.22
2018-05-09T08:58:44.415Z,37.90
2018-05-09T08:59:44.619Z,38.01
2018-05-09T09:00:44.790Z,37.52
2018-05-09T09:01:44.993Z,38.11
2018-05-09T09:02:45.159Z,38.19
2018-05-09T09:03:45.398Z,38.60
2018-05-09T09:04:45.510Z,38.21
2018-05-09T09:05:45.676Z,38.37
2018-05-09T09:06:45.903Z,38.56
2018-05-09T09:07:46.063Z,37.70
2018-05-09T09:08:46.240Z,37.10
2018-05-09T09:09:46.441Z,37.78
2018-05-09T09:10:46.642Z,36.75
2018-05-09T09:11:46.799Z,36.55
2018-05-09T09:12:47.019Z,36.18
2018-05-09T09:13:47.204Z,36.85
2018-05-09T09:14:47.608Z,36.94
2018-05-09T09:15:47.613Z,36.87
2018-05-09T09:16:47.824Z,36.77
2018-05-09T09:17:48.019Z,37.43
2018-05-09T09:18:48.193Z,37.24
2018-05-09T09:19:48.405Z,37.24
2018-05-09T09:20:48.660Z,36.54
2018-05-09T09:21:48.744Z,35.68
2018-05-09T09:22:48.911Z,35.31
2018-05-09T09:23:49.104Z,33.85
2018-05-09T09:24:49.283Z,33.54
2018-05-09T09:25:49.481Z,34.03
2018-05-09T09:26:49.659Z,33.83
2018-05-09T09:27:49.826Z,33.83
2018-05-09T09:28:50.007Z,33.36
2018-05-09T09:29:50.237Z,32.79
2018-05-09T09:30:50.399Z,35.14
2018-05-09T09:31:50.585Z,36.66
2018-05-09T09:32:50.749Z,37.41
2018-05-09T09:33:50.951Z,38.39
2018-05-09T09:34:51.145Z,37.35
2018-05-09T09:35:51.275Z,37.79
2018-05-09T09:36:51.537Z,37.61
2018-05-09T09:37:51.647Z,37.24
2018-05-09T09:38:52.001Z,36.40
2018-05-09T09:39:52.003Z,35.06
2018-05-09T09:40:52.179Z,34.88
2018-05-09T09:41:52.351Z,34.03
2018-05-09T09:42:52.547Z,33.83
2018-05-09T09:43:52.736Z,33.48
2018-05-09T09:44:52.928Z,32.96
2018-05-09T09:45:53.095Z,33.46
2018-05-09T09:46:53.378Z,33.62
2018-05-09T09:47:53.577Z,35.03
2018-05-09T09:48:53.663Z,36.74
2018-05-09T09:49:53.839Z,37.94
2018-05-09T09:50:54.053Z,38.56
2018-05-09T09:51:54.255Z,37.16
2018-05-09T09:52:54.376Z,36.32
2018-05-09T09:53:54.557Z,35.84
2018-05-09T09:54:54.738Z,35.66
2018-05-09T09:55:54.915Z,34.50
2018-05-09T09:56:55.101Z,34.12
2018-05-09T09:57:55.341Z,33.73
2018-05-09T09:58:55.778Z,33.88
2018-05-09T09:59:55.682Z,35.63
2018-05-09T10:00:55.871Z,36.21
2018-05-09T10:01:56.069Z,35.45
2018-05-09T10:02:56.249Z,35.45
2018-05-09T10:03:56.450Z,35.35
2018-05-09T10:04:56.613Z,35.63
2018-05-09T10:05:56.786Z,35.64
2018-05-09T10:06:57.142Z,34.88
2018-05-09T10:07:57.289Z,34.79
2018-05-09T10:08:57.410Z,34.67
2018-05-09T10:09:57.851Z,36.21
2018-05-09T10:10:57.780Z,36.58
2018-05-09T10:11:57.951Z,37.82
2018-05-09T10:12:58.127Z,37.35
2018-05-09T10:13:58.310Z,36.18
2018-05-09T10:14:58.503Z,37.05
2018-05-09T10:15:58.685Z,37.23
2018-05-09T10:16:58.867Z,38.58
2018-05-09T10:17:59.055Z,38.29
2018-05-09T10:18:59.206Z,37.81
2018-05-09T10:19:59.627Z,37.67
2018-05-09T10:20:59.589Z,38.54
2018-05-09T10:21:59.752Z,38.93
2018-05-09T10:23:00.000Z,38.64
2018-05-09T10:24:00.154Z,39.03
2018-05-09T10:25:00.300Z,39.43
2018-05-09T10:26:00.545Z,39.61
2018-05-09T10:27:00.719Z,38.46
2018-05-09T10:28:00.884Z,38.78
2018-05-09T10:29:01.091Z,38.76
2018-05-09T10:30:01.246Z,39.62
2018-05-09T10:31:01.442Z,39.72
2018-05-09T10:32:01.616Z,39.80
2018-05-09T10:33:01.773Z,40.00
2018-05-09T10:34:02.210Z,40.09
2018-05-09T10:35:02.147Z,40.67
2018-05-09T10:36:02.361Z,40.48
2018-05-09T10:37:02.494Z,39.94
2018-05-09T10:38:02.695Z,39.26
2018-05-09T10:39:02.870Z,39.90
2018-05-09T10:40:03.034Z,40.59
2018-05-09T10:41:03.226Z,40.31
2018-05-09T10:42:03.371Z,39.65
2018-05-09T10:43:03.580Z,39.55
2018-05-09T10:44:03.748Z,40.40
2018-05-09T10:45:03.895Z,40.03
2018-05-09T10:46:04.127Z,39.45
2018-05-09T10:47:04.241Z,39.82
2018-05-09T10:48:04.413Z,39.92
2018-05-09T10:49:04.639Z,40.00
2018-05-09T10:50:04.799Z,40.38
2018-05-09T10:51:04.999Z,39.80
2018-05-09T10:52:05.175Z,39.72
2018-05-09T10:53:05.378Z,40.28
2018-05-09T10:54:05.558Z,39.92
2018-05-09T10:55:05.704Z,39.62
2018-05-09T10:56:05.924Z,39.06
2018-05-09T10:57:06.104Z,39.16
2018-05-09T10:58:06.320Z,39.72
2018-05-09T10:59:06.504Z,40.28
2018-05-09T11:00:07.721Z,40.01
2018-05-09T11:01:06.799Z,40.31
2018-05-09T11:02:06.956Z,40.40
2018-05-09T11:03:07.117Z,40.03
2018-05-09T11:05:07.543Z,38.50
2018-05-09T11:06:07.643Z,38.23
2018-05-09T11:07:07.839Z,38.50
2018-05-09T11:08:08.018Z,38.68
2018-05-09T11:09:08.527Z,38.68
2018-05-09T11:10:08.797Z,38.89
2018-05-09T11:11:08.574Z,38.89
2018-05-09T11:12:08.782Z,38.02
2018-05-09T11:13:08.982Z,40.40
2018-05-09T11:14:09.146Z,40.58
2018-05-09T11:15:09.331Z,40.28
2018-05-09T11:16:09.520Z,40.40
2018-05-09T11:17:09.687Z,39.74
2018-05-09T11:18:09.862Z,39.26
2018-05-09T11:19:10.046Z,38.68
2018-05-09T11:20:10.268Z,38.87
2018-05-09T11:21:10.463Z,40.28
2018-05-09T11:22:10.631Z,40.77
2018-05-09T11:23:10.814Z,40.31
2018-05-09T11:24:10.988Z,39.94
2018-05-09T11:25:11.180Z,39.43
2018-05-09T11:26:11.357Z,40.03
2018-05-09T11:27:11.519Z,39.94
2018-05-09T11:28:11.747Z,39.84
2018-05-09T11:29:11.972Z,39.28
2018-05-09T11:30:12.042Z,38.68
2018-05-09T11:31:12.213Z,38.78
2018-05-09T11:32:12.401Z,38.70
2018-05-09T11:33:12.585Z,38.79
2018-05-09T11:34:12.758Z,38.13
2018-05-09T11:35:12.933Z,37.84
2018-05-09T11:36:13.139Z,38.31
2018-05-09T11:37:13.309Z,37.35
2018-05-09T11:38:13.573Z,37.73
2018-05-09T11:39:13.663Z,38.89
2018-05-09T11:40:13.863Z,37.82
2018-05-09T11:41:14.062Z,37.34
2018-05-09T11:42:14.199Z,37.43
2018-05-09T11:43:14.390Z,37.43
2018-05-09T11:44:14.558Z,37.43
2018-05-09T11:45:14.728Z,37.65
2018-05-09T11:46:14.907Z,37.18
2018-05-09T11:47:15.098Z,36.50
2018-05-09T11:48:15.318Z,36.42
2018-05-09T11:49:15.465Z,36.50
2018-05-09T11:50:15.663Z,36.40
2018-05-09T11:51:15.827Z,36.87
2018-05-09T11:52:15.994Z,37.65
2018-05-09T11:53:16.244Z,38.02
2018-05-09T11:54:16.366Z,38.50
2018-05-09T11:55:16.557Z,38.21
2018-05-09T11:56:16.747Z,38.48
2018-05-09T11:57:16.892Z,38.79
2018-05-09T11:58:17.077Z,38.91
2018-05-09T11:59:17.233Z,38.32
2018-05-09T12:00:17.401Z,37.73
2018-05-09T12:01:17.571Z,38.89
2018-05-09T12:02:17.798Z,38.89
2018-05-09T12:03:17.923Z,38.78
2018-05-09T12:04:18.093Z,38.68
2018-05-09T12:05:18.253Z,39.74
2018-05-09T12:06:18.478Z,39.62
2018-05-09T12:07:18.642Z,39.92
2018-05-09T12:08:18.821Z,40.50
2018-05-09T12:09:18.992Z,39.92
2018-05-09T12:10:19.302Z,41.06
2018-05-09T12:11:19.387Z,40.38
2018-05-09T12:12:19.573Z,40.40
2018-05-09T12:13:19.753Z,39.84
2018-05-09T12:14:19.907Z,39.84
2018-05-09T12:15:20.083Z,39.65
2018-05-09T12:16:20.268Z,39.37
2018-05-09T12:17:20.536Z,39.01
2018-05-09T12:18:20.640Z,38.32
2018-05-09T12:19:20.824Z,38.25
2018-05-09T12:20:20.974Z,37.49
2018-05-09T12:21:21.195Z,38.15
2018-05-09T12:22:21.458Z,37.28
2018-05-09T12:23:21.531Z,37.37
2018-05-09T12:24:21.697Z,38.71
2018-05-09T12:25:21.873Z,39.01
2018-05-09T12:26:22.070Z,38.60
2018-05-09T12:27:22.249Z,38.42
2018-05-09T12:28:22.441Z,38.32
2018-05-09T12:29:22.608Z,37.65
2018-05-09T12:30:22.772Z,37.35
2018-05-09T12:31:22.961Z,37.63
2018-05-09T12:32:23.144Z,37.34
2018-05-09T12:33:23.314Z,37.43
2018-05-09T12:34:23.569Z,37.53
2018-05-09T12:35:23.663Z,38.70
2018-05-09T12:36:23.910Z,38.29
2018-05-09T12:37:24.000Z,37.92
2018-05-09T12:38:24.186Z,37.65
2018-05-09T12:40:24.600Z,37.94
2018-05-09T12:41:24.754Z,37.76
2018-05-09T12:42:25.024Z,37.37
2018-05-09T12:43:25.115Z,37.10
2018-05-09T12:44:25.319Z,35.84
2018-05-09T12:45:25.471Z,35.74
2018-05-09T12:46:25.666Z,36.22
2018-05-09T12:47:25.823Z,36.44
2018-05-09T12:48:26.016Z,36.05
2018-05-09T12:49:26.202Z,36.34
2018-05-09T12:50:26.372Z,37.37
2018-05-09T12:51:26.558Z,37.26
2018-05-09T12:52:26.751Z,36.87
2018-05-09T12:53:26.933Z,37.07
2018-05-09T12:54:27.137Z,37.45
2018-05-09T12:55:27.292Z,37.63
2018-05-09T12:56:27.490Z,37.63
2018-05-09T12:57:27.656Z,37.34
2018-05-09T12:58:27.839Z,37.24
2018-05-09T12:59:28.017Z,37.24
2018-05-09T13:00:28.288Z,37.05
2018-05-09T13:01:28.364Z,36.95